Time;durP1;ratioP1;P1;durP2;ratioP2;P2;SDS_P1;SDS_P2;PMS_P1;PMS_P2;Temp;Humidity;BMP_temperature;BMP_pressure;BME280_temperature;BME280_humidity;BME280_pressure;Samples;Min_cycle;Max_cycle;Signal;HPM_P1;HPM_P2
2023/05/23 00:02:14;;;;;;;43.87;27.43;;;17.00;99.90;;;;;;5031558;28;20490;-73
2023/05/23 00:04:41;;;;;;;37.63;28.23;;;16.90;99.90;;;;;;5035899;28;20420;-72
2023/05/23 00:07:08;;;;;;;39.20;27.07;;;16.90;99.90;;;;;;5029815;28;20491;-72
2023/05/23 00:09:35;;;;;;;39.77;28.30;;;16.90;99.90;;;;;;5030789;28;20507;-72
2023/05/23 00:12:03;;;;;;;45.20;30.83;;;16.90;99.90;;;;;;5037873;28;21042;-72
2023/05/23 00:14:32;;;;;;;44.00;29.03;;;16.90;99.90;;;;;;5049699;28;20933;-72
2023/05/23 00:17:00;;;;;;;42.30;29.80;;;16.90;99.90;;;;;;5033627;28;20420;-72
2023/05/23 00:19:26;;;;;;;45.33;29.90;;;16.90;99.90;;;;;;5034653;28;21023;-71
2023/05/23 00:21:57;;;;;;;43.50;29.80;;;16.80;99.90;;;;;;5032334;28;20586;-72
2023/05/23 00:24:24;;;;;;;52.00;31.00;;;16.90;99.90;;;;;;5029795;28;20531;-71
2023/05/23 00:26:50;;;;;;;42.90;29.43;;;16.90;99.90;;;;;;5029943;28;20503;-71
2023/05/23 00:29:18;;;;;;;41.57;30.90;;;16.90;99.90;;;;;;5039925;28;20427;-72
2023/05/23 00:31:46;;;;;;;50.07;31.43;;;16.90;99.90;;;;;;5035484;28;20877;-71
2023/05/23 00:34:13;;;;;;;44.43;31.10;;;16.90;99.90;;;;;;5031839;28;20432;-71
2023/05/23 00:36:40;;;;;;;42.53;31.50;;;16.90;99.90;;;;;;5034294;28;20428;-72
2023/05/23 00:39:07;;;;;;;42.60;30.77;;;16.90;99.90;;;;;;5029341;28;20453;-71
2023/05/23 00:41:34;;;;;;;49.13;29.90;;;16.80;99.90;;;;;;5034669;28;20473;-71
2023/05/23 00:44:01;;;;;;;49.00;31.53;;;16.80;99.90;;;;;;5029705;28;20481;-72
2023/05/23 00:46:30;;;;;;;47.20;32.30;;;16.80;99.90;;;;;;5029339;28;20578;-71
2023/05/23 00:48:57;;;;;;;42.90;31.00;;;16.70;99.90;;;;;;5038583;28;20937;-71
2023/05/23 00:51:25;;;;;;;49.60;32.07;;;16.70;99.90;;;;;;5031000;28;20456;-72
2023/05/23 00:53:51;;;;;;;43.00;31.30;;;16.70;99.90;;;;;;5029809;28;20424;-71
2023/05/23 00:56:19;;;;;;;44.63;32.80;;;16.70;99.90;;;;;;5037024;28;20453;-72
2023/05/23 00:58:46;;;;;;;43.80;32.40;;;16.70;99.90;;;;;;5034859;28;20473;-72
2023/05/23 01:01:13;;;;;;;43.70;31.33;;;16.70;99.90;;;;;;5031556;28;20452;-72
2023/05/23 01:03:44;;;;;;;46.43;31.43;;;16.70;99.90;;;;;;5031007;28;20428;-72
2023/05/23 01:06:11;;;;;;;48.00;31.97;;;16.70;99.90;;;;;;5037024;28;20528;-72
2023/05/23 01:08:38;;;;;;;48.67;31.53;;;16.70;99.90;;;;;;5040049;28;20856;-72
2023/05/23 01:11:11;;;;;;;49.60;32.97;;;16.60;99.90;;;;;;5032786;28;20478;-71
2023/05/23 01:13:42;;;;;;;47.27;33.27;;;16.60;99.90;;;;;;5035076;28;20516;-72
2023/05/23 01:16:15;;;;;;;46.77;34.33;;;16.50;99.90;;;;;;5032772;28;20470;-71
2023/05/23 01:18:56;;;;;;;56.33;35.20;;;16.50;99.90;;;;;;5036453;28;20965;-72
2023/05/23 01:21:24;;;;;;;46.73;33.93;;;16.50;99.90;;;;;;5042903;28;20472;-72
2023/05/23 01:24:21;;;;;;;49.37;34.83;;;16.50;99.90;;;;;;5046419;28;20436;-72
2023/05/23 01:27:05;;;;;;;52.30;34.47;;;16.50;99.90;;;;;;5033085;28;20488;-73
2023/05/23 01:29:37;;;;;;;49.60;34.07;;;16.50;99.90;;;;;;5035327;28;20447;-72
2023/05/23 01:32:10;;;;;;;52.03;34.40;;;16.50;99.90;;;;;;5037768;28;20472;-72
2023/05/23 01:34:38;;;;;;;51.37;33.67;;;16.50;99.90;;;;;;5032948;28;20486;-72
2023/05/23 01:37:09;;;;;;;50.93;35.07;;;16.50;99.90;;;;;;5032777;28;20483;-72
2023/05/23 01:39:36;;;;;;;48.90;33.70;;;16.50;99.90;;;;;;5032420;28;20453;-72
2023/05/23 01:42:03;;;;;;;55.80;36.33;;;16.40;99.90;;;;;;5032511;28;20538;-72
2023/05/23 01:44:30;;;;;;;46.50;33.87;;;16.40;99.90;;;;;;5032369;28;20494;-72
2023/05/23 01:46:58;;;;;;;49.73;33.83;;;16.40;99.90;;;;;;5038549;28;20915;-72
2023/05/23 01:49:26;;;;;;;45.87;31.73;;;16.40;99.90;;;;;;5032917;28;20436;-72
2023/05/23 01:51:53;;;;;;;45.23;31.13;;;16.30;99.90;;;;;;5032737;28;20472;-73
2023/05/23 01:54:20;;;;;;;43.20;31.03;;;16.30;99.90;;;;;;5031739;28;20425;-72
2023/05/23 01:56:48;;;;;;;38.63;29.57;;;16.20;99.90;;;;;;5032400;28;20523;-72
2023/05/23 01:59:14;;;;;;;40.73;28.50;;;16.10;99.90;;;;;;5031575;28;20445;-72
2023/05/23 02:01:41;;;;;;;41.63;27.57;;;16.10;99.90;;;;;;5049704;28;20443;-72
2023/05/23 02:04:09;;;;;;;37.83;25.00;;;16.00;99.90;;;;;;5035109;28;20462;-71
2023/05/23 02:06:36;;;;;;;36.90;23.13;;;16.00;99.90;;;;;;5031699;28;20481;-71
2023/05/23 02:09:02;;;;;;;38.53;22.90;;;16.00;99.90;;;;;;5031371;28;20429;-72
2023/05/23 02:11:29;;;;;;;32.20;21.97;;;15.90;99.90;;;;;;5034884;28;20876;-72
2023/05/23 02:13:56;;;;;;;34.03;23.23;;;15.90;99.90;;;;;;5039182;28;20421;-72
2023/05/23 02:16:24;;;;;;;29.30;21.97;;;15.80;99.90;;;;;;5031845;28;20428;-71
2023/05/23 02:18:52;;;;;;;31.27;22.93;;;15.80;99.90;;;;;;5031348;28;20497;-72
2023/05/23 02:21:19;;;;;;;32.57;24.10;;;15.70;99.90;;;;;;5034045;28;20481;-72
2023/05/23 02:23:46;;;;;;;29.67;21.20;;;15.60;99.90;;;;;;5042573;28;20995;-72
2023/05/23 02:26:13;;;;;;;33.23;24.20;;;15.50;99.90;;;;;;5034251;28;20485;-72
2023/05/23 02:28:40;;;;;;;33.50;24.53;;;15.50;99.90;;;;;;5031403;28;20492;-72
2023/05/23 02:31:06;;;;;;;32.97;24.20;;;15.40;99.90;;;;;;5042473;28;20504;-72
2023/05/23 02:33:33;;;;;;;35.93;24.70;;;15.30;99.90;;;;;;5031308;28;20846;-72
2023/05/23 02:36:00;;;;;;;35.53;25.20;;;15.30;99.90;;;;;;5037997;28;20453;-72
2023/05/23 02:38:29;;;;;;;34.57;24.77;;;15.20;99.90;;;;;;5031946;28;20458;-72
2023/05/23 02:40:56;;;;;;;33.77;23.80;;;15.20;99.90;;;;;;5031342;28;20469;-72
2023/05/23 02:43:23;;;;;;;34.60;24.20;;;15.20;99.90;;;;;;5031049;28;20830;-72
2023/05/23 02:45:49;;;;;;;31.53;24.60;;;15.10;99.90;;;;;;5035248;28;21049;-72
2023/05/23 02:48:16;;;;;;;35.67;23.73;;;15.10;99.90;;;;;;5032685;28;20492;-72
2023/05/23 02:50:43;;;;;;;33.63;24.03;;;15.10;99.90;;;;;;5030926;28;20461;-72
2023/05/23 02:53:10;;;;;;;31.93;22.63;;;15.10;99.90;;;;;;5031024;28;20453;-72
2023/05/23 02:55:38;;;;;;;33.83;23.77;;;15.10;99.90;;;;;;5030573;28;20934;-72
2023/05/23 02:58:05;;;;;;;32.60;22.90;;;15.10;99.90;;;;;;5030748;28;20830;-72
2023/05/23 03:00:32;;;;;;;32.73;22.60;;;15.10;99.90;;;;;;5036770;28;20475;-72
2023/05/23 03:02:59;;;;;;;28.47;21.20;;;15.10;99.90;;;;;;5037738;28;20453;-72
2023/05/23 03:05:26;;;;;;;29.40;23.30;;;15.10;99.90;;;;;;5037691;28;20461;-72
2023/05/23 03:07:53;;;;;;;40.03;24.03;;;15.10;99.90;;;;;;5030573;28;20828;-72
2023/05/23 03:10:20;;;;;;;33.73;21.93;;;15.10;99.90;;;;;;5030435;28;20453;-72
2023/05/23 03:12:47;;;;;;;29.40;20.50;;;15.00;99.90;;;;;;5035662;28;20477;-72
2023/05/23 03:15:14;;;;;;;28.60;19.10;;;15.00;99.90;;;;;;5030434;28;20508;-71
2023/05/23 03:17:41;;;;;;;30.53;21.37;;;15.00;99.90;;;;;;5030709;28;20453;-72
2023/05/23 03:20:09;;;;;;;31.70;20.17;;;15.00;99.90;;;;;;5038411;28;20953;-72
2023/05/23 03:22:36;;;;;;;27.23;19.20;;;14.90;99.90;;;;;;5033765;28;20469;-72
2023/05/23 03:25:03;;;;;;;28.57;20.30;;;14.90;99.90;;;;;;5035046;28;20449;-72
2023/05/23 03:27:29;;;;;;;26.03;19.60;;;14.80;99.90;;;;;;5038129;28;20483;-72
2023/05/23 03:29:57;;;;;;;30.70;20.20;;;14.80;99.90;;;;;;5039932;28;20457;-72
2023/05/23 03:32:24;;;;;;;27.40;20.10;;;14.70;99.90;;;;;;5038279;28;20468;-72
2023/05/23 03:34:51;;;;;;;26.03;19.80;;;14.70;99.90;;;;;;5034605;28;20494;-72
2023/05/23 03:37:17;;;;;;;29.43;20.07;;;14.70;99.90;;;;;;5030301;28;21203;-72
2023/05/23 03:39:44;;;;;;;27.60;20.23;;;14.60;99.90;;;;;;5030151;28;20454;-73
2023/05/23 03:42:10;;;;;;;29.37;21.77;;;14.60;99.90;;;;;;5030111;28;20477;-72
2023/05/23 03:44:37;;;;;;;29.87;22.00;;;14.60;99.90;;;;;;5033165;28;20507;-72
2023/05/23 03:47:05;;;;;;;28.50;21.60;;;14.60;99.90;;;;;;5031536;28;20554;-72
2023/05/23 03:49:32;;;;;;;29.10;20.13;;;14.70;99.90;;;;;;5036527;28;20557;-72
2023/05/23 03:51:59;;;;;;;24.50;19.23;;;14.60;99.90;;;;;;5030127;28;20512;-72
2023/05/23 03:54:25;;;;;;;27.80;20.10;;;14.60;99.90;;;;;;5029478;28;20466;-72
2023/05/23 03:56:52;;;;;;;27.10;18.67;;;14.60;99.90;;;;;;5029870;28;20792;-72
2023/05/23 03:59:18;;;;;;;22.40;17.60;;;14.70;99.90;;;;;;5037673;28;20511;-72
2023/05/23 04:01:45;;;;;;;23.43;16.70;;;14.70;99.90;;;;;;5043426;28;20554;-72
2023/05/23 04:04:13;;;;;;;27.47;17.30;;;14.60;99.90;;;;;;5030002;28;20454;-72
2023/05/23 04:06:40;;;;;;;25.40;18.03;;;14.70;99.90;;;;;;5038134;28;20547;-72
2023/05/23 04:09:07;;;;;;;24.43;17.73;;;14.70;99.90;;;;;;5029778;28;20460;-72
2023/05/23 04:11:33;;;;;;;20.33;15.43;;;14.60;99.90;;;;;;5029988;28;20547;-72
2023/05/23 04:14:00;;;;;;;21.90;16.37;;;14.70;99.90;;;;;;5036685;28;20448;-72
2023/05/23 04:16:27;;;;;;;19.83;15.10;;;14.70;99.90;;;;;;5031278;28;20489;-72
2023/05/23 04:18:54;;;;;;;20.20;15.27;;;14.70;99.90;;;;;;5029740;28;20460;-72
2023/05/23 04:21:22;;;;;;;19.33;14.50;;;14.70;99.90;;;;;;5031873;28;20477;-72
2023/05/23 04:23:48;;;;;;;24.23;15.80;;;14.70;99.90;;;;;;5041348;28;20456;-72
2023/05/23 04:26:15;;;;;;;23.67;14.80;;;14.80;99.90;;;;;;5034933;28;20461;-72
2023/05/23 04:28:45;;;;;;;32.13;15.53;;;14.80;99.90;;;;;;5037955;28;20458;-72
2023/05/23 04:31:12;;;;;;;27.40;16.30;;;14.80;99.90;;;;;;5032120;28;20904;-72
2023/05/23 04:33:39;;;;;;;23.57;16.83;;;14.80;99.90;;;;;;5029732;28;20454;-72
2023/05/23 04:36:08;;;;;;;23.57;16.27;;;14.90;99.90;;;;;;5030028;28;20834;-72
2023/05/23 04:38:37;;;;;;;25.63;17.20;;;14.90;99.90;;;;;;5029901;28;20870;-72
2023/05/23 04:41:04;;;;;;;21.93;16.27;;;15.00;99.90;;;;;;5045326;28;20489;-72
2023/05/23 04:43:32;;;;;;;22.83;17.20;;;15.00;99.90;;;;;;5040499;28;20563;-72
2023/05/23 04:45:59;;;;;;;22.90;16.90;;;15.00;99.90;;;;;;5033997;28;20449;-72
2023/05/23 04:48:26;;;;;;;28.20;18.63;;;15.10;99.90;;;;;;5037528;28;20516;-73
2023/05/23 04:50:54;;;;;;;26.90;19.23;;;15.10;99.90;;;;;;5048180;28;20478;-73
2023/05/23 04:53:21;;;;;;;28.17;19.40;;;15.10;99.90;;;;;;5033437;28;20496;-72
2023/05/23 04:55:49;;;;;;;33.70;21.00;;;15.10;99.90;;;;;;5036525;28;20472;-73
2023/05/23 04:58:16;;;;;;;29.50;19.80;;;15.10;99.90;;;;;;5044733;28;20855;-73
2023/05/23 05:00:43;;;;;;;27.87;20.67;;;15.10;99.90;;;;;;5034605;28;20445;-72
2023/05/23 05:03:10;;;;;;;29.23;21.03;;;15.10;99.90;;;;;;5041922;28;20472;-72
2023/05/23 05:05:37;;;;;;;27.27;19.43;;;15.10;99.90;;;;;;5044296;28;20457;-73
2023/05/23 05:08:05;;;;;;;28.43;20.23;;;15.00;99.90;;;;;;5039574;28;20983;-72
2023/05/23 05:10:31;;;;;;;28.77;19.90;;;15.00;99.90;;;;;;5036181;28;20450;-72
2023/05/23 05:12:59;;;;;;;25.43;17.93;;;15.00;99.90;;;;;;5044518;28;20456;-72
2023/05/23 05:15:26;;;;;;;16.10;13.40;;;15.00;99.90;;;;;;5034091;28;20800;-72
2023/05/23 05:17:53;;;;;;;11.80;10.50;;;15.00;99.90;;;;;;5032786;28;20586;-73
2023/05/23 05:20:20;;;;;;;9.83;8.33;;;14.90;99.90;;;;;;5032677;28;20449;-72
2023/05/23 05:22:47;;;;;;;10.30;7.87;;;14.90;99.90;;;;;;5032679;28;20481;-72
2023/05/23 05:25:14;;;;;;;7.90;6.90;;;14.90;99.90;;;;;;5032589;28;21042;-71
2023/05/23 05:27:42;;;;;;;6.00;5.20;;;15.00;99.90;;;;;;5032430;28;20542;-71
2023/05/23 05:30:11;;;;;;;5.33;4.93;;;15.00;99.90;;;;;;5036836;28;20843;-72
2023/05/23 05:32:37;;;;;;;5.10;4.70;;;15.00;99.90;;;;;;5032080;28;20473;-72
2023/05/23 05:35:06;;;;;;;5.07;4.67;;;15.00;99.90;;;;;;5032690;28;20462;-71
2023/05/23 05:37:33;;;;;;;6.63;5.17;;;15.00;99.90;;;;;;5032685;28;20453;-72
2023/05/23 05:40:05;;;;;;;6.30;5.30;;;15.00;99.90;;;;;;5032589;28;20445;-71
2023/05/23 05:42:31;;;;;;;7.70;5.23;;;15.10;99.90;;;;;;5032410;28;20513;-71
2023/05/23 05:44:58;;;;;;;6.20;5.60;;;15.10;99.90;;;;;;5032287;28;20926;-71
2023/05/23 05:47:26;;;;;;;5.87;5.27;;;15.10;99.90;;;;;;5035512;28;20542;-71
2023/05/23 05:49:52;;;;;;;5.83;5.23;;;15.10;99.90;;;;;;5031985;28;20943;-72
2023/05/23 05:52:19;;;;;;;7.10;4.97;;;15.10;99.90;;;;;;5032241;28;20473;-71
2023/05/23 05:54:46;;;;;;;5.10;4.60;;;15.20;99.90;;;;;;5032460;28;20457;-71
2023/05/23 05:57:12;;;;;;;6.53;4.87;;;15.20;99.90;;;;;;5040389;28;20992;-71
2023/05/23 05:59:39;;;;;;;4.90;4.50;;;15.30;99.90;;;;;;5031678;28;20512;-71
2023/05/23 06:02:07;;;;;;;7.13;5.40;;;15.30;99.90;;;;;;5031806;28;20470;-72
2023/05/23 06:04:35;;;;;;;4.83;4.43;;;15.30;99.90;;;;;;5032126;28;20943;-72
2023/05/23 06:07:01;;;;;;;4.73;4.33;;;15.30;99.90;;;;;;5040344;28;20455;-71
2023/05/23 06:09:28;;;;;;;6.03;5.20;;;15.30;99.90;;;;;;5031726;28;20453;-71
2023/05/23 06:11:54;;;;;;;5.73;5.13;;;15.40;99.90;;;;;;5031822;28;20527;-72
2023/05/23 06:14:21;;;;;;;5.80;5.30;;;15.40;99.90;;;;;;5035617;28;20454;-71
2023/05/23 06:16:48;;;;;;;6.73;5.23;;;15.50;99.90;;;;;;5032023;28;20450;-71
2023/05/23 06:19:14;;;;;;;6.30;5.30;;;15.60;99.90;;;;;;5031749;28;20885;-71
2023/05/23 06:21:42;;;;;;;5.47;4.87;;;15.70;99.90;;;;;;5031786;28;20469;-72
2023/05/23 06:24:09;;;;;;;6.10;5.50;;;15.70;99.90;;;;;;5040080;28;20790;-71
2023/05/23 06:26:36;;;;;;;7.53;4.80;;;15.90;99.90;;;;;;5031738;28;20599;-71
2023/05/23 06:29:03;;;;;;;5.60;4.93;;;16.10;99.90;;;;;;5033567;28;21076;-71
2023/05/23 06:31:29;;;;;;;5.30;4.90;;;16.20;99.90;;;;;;5033204;28;20884;-72
2023/05/23 06:33:56;;;;;;;6.23;4.83;;;16.30;99.90;;;;;;5036716;28;20464;-71
2023/05/23 06:36:23;;;;;;;6.00;5.40;;;16.50;99.90;;;;;;5034358;28;20481;-71
2023/05/23 06:38:50;;;;;;;4.83;4.40;;;16.70;99.90;;;;;;5031226;28;20478;-71
2023/05/23 06:41:17;;;;;;;6.20;5.67;;;16.80;99.90;;;;;;5031662;28;20469;-71
2023/05/23 06:43:44;;;;;;;5.90;5.40;;;16.70;99.90;;;;;;5031236;28;20871;-71
2023/05/23 06:46:10;;;;;;;5.33;4.83;;;16.70;99.90;;;;;;5038210;28;20453;-71
2023/05/23 06:48:37;;;;;;;6.27;5.10;;;16.70;99.90;;;;;;5035905;28;20913;-72
2023/05/23 06:51:04;;;;;;;5.97;4.93;;;16.60;99.90;;;;;;5031009;28;20528;-71
2023/05/23 06:53:30;;;;;;;6.73;4.93;;;16.60;99.90;;;;;;5031166;28;20429;-72
2023/05/23 06:55:58;;;;;;;5.40;4.73;;;16.70;99.90;;;;;;5036207;28;20507;-71
2023/05/23 06:58:25;;;;;;;5.00;4.50;;;16.70;99.90;;;;;;5034045;28;20507;-72
2023/05/23 07:00:52;;;;;;;5.27;4.40;;;16.70;99.90;;;;;;5030997;28;20532;-70
2023/05/23 07:03:19;;;;;;;8.23;5.20;;;16.80;99.90;;;;;;5038528;28;20453;-70
2023/05/23 07:05:45;;;;;;;5.37;4.87;;;16.80;99.90;;;;;;5031590;28;20503;-70
2023/05/23 07:08:12;;;;;;;7.23;6.13;;;16.80;99.90;;;;;;5030806;28;20894;-70
2023/05/23 07:10:40;;;;;;;10.70;7.53;;;16.80;99.90;;;;;;5039232;28;20489;-70
2023/05/23 07:13:08;;;;;;;10.30;7.83;;;16.90;99.90;;;;;;5033152;28;20458;-70
2023/05/23 07:15:34;;;;;;;12.80;8.80;;;16.90;99.90;;;;;;5032448;28;20457;-69
2023/05/23 07:18:01;;;;;;;9.40;7.87;;;16.90;99.90;;;;;;5030609;28;20793;-70
2023/05/23 07:20:28;;;;;;;11.37;8.87;;;16.90;99.90;;;;;;5030214;28;20832;-70
2023/05/23 07:22:56;;;;;;;14.40;9.40;;;16.80;99.90;;;;;;5031025;28;20449;-69
2023/05/23 07:25:23;;;;;;;13.33;9.10;;;16.70;99.90;;;;;;5030957;28;20457;-70
2023/05/23 07:27:49;;;;;;;12.30;10.30;;;16.70;99.90;;;;;;5030349;28;20466;-70
2023/05/23 07:30:19;;;;;;;11.10;9.90;;;16.70;99.90;;;;;;5040855;28;20485;-70
2023/05/23 07:32:46;;;;;;;13.10;10.73;;;16.70;99.90;;;;;;5038212;28;20482;-70
2023/05/23 07:35:13;;;;;;;29.13;10.47;;;16.70;99.90;;;;;;5037569;28;20487;-69
2023/05/23 07:37:40;;;;;;;14.10;11.73;;;16.80;99.90;;;;;;5031561;28;20485;-70
2023/05/23 07:40:09;;;;;;;14.37;12.20;;;16.80;99.90;;;;;;5030501;28;20868;-71
2023/05/23 07:42:36;;;;;;;12.10;10.80;;;16.70;99.90;;;;;;5030332;28;20481;-70
2023/05/23 07:45:02;;;;;;;13.23;10.30;;;16.70;99.90;;;;;;5030952;28;20478;-70
2023/05/23 07:47:30;;;;;;;12.57;10.70;;;16.70;99.90;;;;;;5034161;28;20445;-71
2023/05/23 07:49:57;;;;;;;16.07;10.80;;;16.70;99.90;;;;;;5030587;28;20454;-70
2023/05/23 07:52:24;;;;;;;13.30;11.10;;;16.70;99.90;;;;;;5030367;28;20535;-71
2023/05/23 07:54:51;;;;;;;13.07;9.57;;;16.80;99.90;;;;;;5030258;28;20959;-70
2023/05/23 07:57:17;;;;;;;12.30;10.37;;;17.00;99.90;;;;;;5030627;28;20503;-70
2023/05/23 07:59:44;;;;;;;11.50;9.30;;;17.10;99.90;;;;;;5037900;28;20531;-70
2023/05/23 08:02:10;;;;;;;12.30;9.27;;;17.20;99.90;;;;;;5030389;28;20469;-71
2023/05/23 08:04:39;;;;;;;9.30;8.40;;;17.20;99.90;;;;;;5030275;28;20457;-70
2023/05/23 08:07:07;;;;;;;9.33;8.30;;;17.30;99.90;;;;;;5030060;28;20933;-71
2023/05/23 08:09:34;;;;;;;8.43;7.53;;;17.50;99.90;;;;;;5029780;28;20496;-70
2023/05/23 08:12:00;;;;;;;9.17;8.10;;;17.60;99.90;;;;;;5030098;28;20527;-71
2023/05/23 08:14:27;;;;;;;7.60;6.90;;;18.00;99.90;;;;;;5038466;28;20786;-70
2023/05/23 08:16:54;;;;;;;6.57;5.87;;;18.50;99.90;;;;;;5034192;28;20421;-70
2023/05/23 08:19:20;;;;;;;6.20;5.60;;;19.00;99.90;;;;;;5041684;28;20490;-70
2023/05/23 08:21:48;;;;;;;5.30;4.90;;;19.30;99.90;;;;;;5037502;28;20528;-71
2023/05/23 08:24:15;;;;;;;5.10;4.70;;;19.40;99.90;;;;;;5038809;28;20432;-71
2023/05/23 08:26:42;;;;;;;5.30;4.80;;;19.40;99.90;;;;;;5050233;28;20870;-70
2023/05/23 08:29:09;;;;;;;4.37;4.03;;;19.40;99.90;;;;;;5036789;28;20466;-70
2023/05/23 08:31:35;;;;;;;5.73;4.83;;;19.20;99.90;;;;;;5035750;28;20444;-70
2023/05/23 08:34:02;;;;;;;4.63;4.23;;;19.00;99.90;;;;;;5033832;28;20977;-70
2023/05/23 08:36:28;;;;;;;6.37;4.70;;;18.70;99.90;;;;;;5033825;28;20466;-70
2023/05/23 08:38:56;;;;;;;5.50;5.00;;;18.50;99.90;;;;;;5033834;28;20518;-70
2023/05/23 08:41:24;;;;;;;8.50;6.03;;;18.30;99.90;;;;;;5034083;28;20447;-70
2023/05/23 08:43:51;;;;;;;7.50;5.13;;;18.20;99.90;;;;;;5033804;28;20459;-70
2023/05/23 08:46:18;;;;;;;5.10;4.70;;;18.10;99.90;;;;;;5033899;28;20446;-70
2023/05/23 08:48:53;;;;;;;8.77;5.30;;;18.00;99.90;;;;;;5037377;28;20850;-70
2023/05/23 08:51:22;;;;;;;4.60;4.30;;;17.90;99.90;;;;;;5033405;28;21071;-70
2023/05/23 08:53:49;;;;;;;6.60;5.50;;;17.80;99.90;;;;;;5033626;28;20453;-70
2023/05/23 08:56:17;;;;;;;5.50;5.00;;;17.70;99.90;;;;;;5033927;28;20449;-70
2023/05/23 08:58:46;;;;;;;6.13;5.60;;;17.70;99.90;;;;;;5033232;28;20881;-70
2023/05/23 09:01:14;;;;;;;6.50;5.90;;;17.70;99.90;;;;;;5033475;28;20448;-70
2023/05/23 09:03:42;;;;;;;8.97;4.87;;;17.70;99.90;;;;;;5035341;28;20591;-70
2023/05/23 09:06:09;;;;;;;5.60;5.10;;;17.70;99.90;;;;;;5045098;28;20431;-70
2023/05/23 09:08:36;;;;;;;8.40;5.40;;;17.80;99.90;;;;;;5035073;28;20496;-70
2023/05/23 09:11:04;;;;;;;6.43;4.50;;;17.90;99.90;;;;;;5033232;28;20469;-70
2023/05/23 09:13:33;;;;;;;5.20;4.70;;;18.10;99.90;;;;;;5038186;28;20457;-70
2023/05/23 09:16:04;;;;;;;5.60;5.00;;;18.20;99.90;;;;;;5033402;28;20420;-70
2023/05/23 09:18:35;;;;;;;5.80;5.20;;;18.30;99.90;;;;;;5033054;28;20457;-70
2023/05/23 09:21:02;;;;;;;7.00;5.30;;;18.30;99.90;;;;;;5033026;28;21038;-70
2023/05/23 09:23:31;;;;;;;9.40;5.20;;;18.30;99.90;;;;;;5032799;28;20503;-70
2023/05/23 09:26:02;;;;;;;6.30;5.30;;;18.20;99.90;;;;;;5032358;28;20464;-70
2023/05/23 09:28:28;;;;;;;5.70;5.17;;;18.00;99.90;;;;;;5032465;28;20807;-70
2023/05/23 09:31:00;;;;;;;7.17;5.80;;;17.90;99.90;;;;;;5038361;28;20836;-70
2023/05/23 09:33:36;;;;;;;8.83;5.60;;;17.70;99.90;;;;;;5040871;28;20948;-69
2023/05/23 09:36:04;;;;;;;6.23;5.63;;;17.60;99.90;;;;;;5032983;28;21057;-70
2023/05/23 09:38:31;;;;;;;6.10;5.07;;;17.50;99.90;;;;;;5032600;28;20521;-70
2023/05/23 09:40:59;;;;;;;7.50;6.00;;;17.40;99.90;;;;;;5040254;28;21003;-70
2023/05/23 09:43:26;;;;;;;5.63;4.73;;;17.30;99.90;;;;;;5048817;28;20452;-69
2023/05/23 09:45:54;;;;;;;8.30;5.90;;;17.40;99.90;;;;;;5032905;28;20471;-70
2023/05/23 09:48:28;;;;;;;5.90;5.30;;;17.70;99.90;;;;;;5037033;28;20460;-70
2023/05/23 09:50:55;;;;;;;5.67;5.07;;;18.00;99.90;;;;;;5032554;28;20471;-71
2023/05/23 09:53:22;;;;;;;7.10;5.13;;;18.30;99.90;;;;;;5032422;28;20571;-70
2023/05/23 09:55:51;;;;;;;5.27;4.60;;;18.50;99.90;;;;;;5032434;28;20507;-70
2023/05/23 09:58:19;;;;;;;6.00;5.10;;;18.60;99.90;;;;;;5032168;28;20970;-70
2023/05/23 10:00:47;;;;;;;6.20;4.77;;;18.80;99.90;;;;;;5032473;28;20733;-70
2023/05/23 10:03:17;;;;;;;4.60;4.20;;;18.90;99.90;;;;;;5032365;28;20482;-70
2023/05/23 10:05:47;;;;;;;6.40;4.40;;;19.00;99.90;;;;;;5040291;28;20825;-70
2023/05/23 10:08:18;;;;;;;5.03;3.70;;;19.10;99.90;;;;;;5031866;28;21020;-70
2023/05/23 10:11:32;;;;;;;6.17;3.70;;;19.20;99.90;;;;;;5032107;28;20428;-71
2023/05/23 10:14:01;;;;;;;5.97;4.20;;;19.20;99.90;;;;;;5030911;28;20443;-70
2023/05/23 10:16:38;;;;;;;6.77;4.43;;;19.20;99.90;;;;;;5031827;28;20930;-70
2023/05/23 10:19:09;;;;;;;4.90;4.43;;;19.10;99.90;;;;;;5032256;28;20484;-70
2023/05/23 10:21:44;;;;;;;4.80;4.40;;;19.10;99.90;;;;;;5040027;28;20486;-70
2023/05/23 10:24:11;;;;;;;4.00;3.70;;;19.10;99.90;;;;;;5031944;28;20490;-70
2023/05/23 10:26:38;;;;;;;4.70;4.30;;;19.10;99.90;;;;;;5031716;28;20457;-71
2023/05/23 10:29:06;;;;;;;7.13;5.20;;;19.10;99.90;;;;;;5034495;28;20557;-70
2023/05/23 10:31:34;;;;;;;6.30;5.60;;;19.20;99.90;;;;;;5034457;28;20440;-70
2023/05/23 10:34:08;;;;;;;14.03;4.80;;;19.20;99.90;;;;;;5039965;28;20420;-70
2023/05/23 10:36:43;;;;;;;5.73;5.10;;;19.20;99.90;;;;;;5030471;28;20424;-70
2023/05/23 10:39:15;;;;;;;4.70;4.30;;;19.10;99.90;;;;;;5031421;28;20456;-70
2023/05/23 10:41:48;;;;;;;5.57;4.43;;;19.10;99.90;;;;;;5031498;28;20841;-70
2023/05/23 10:44:23;;;;;;;4.27;3.87;;;18.90;99.90;;;;;;5031340;28;20905;-70
2023/05/23 10:46:51;;;;;;;4.23;3.37;;;18.90;99.90;;;;;;5031411;28;20453;-70
2023/05/23 10:49:18;;;;;;;9.20;3.67;;;19.00;99.90;;;;;;5036011;28;20870;-70
2023/05/23 10:51:49;;;;;;;5.43;3.40;;;19.20;99.90;;;;;;5030972;28;20999;-70
2023/05/23 10:54:18;;;;;;;4.30;3.30;;;19.20;99.90;;;;;;5039813;28;20809;-70
2023/05/23 10:56:45;;;;;;;5.63;3.50;;;19.30;99.90;;;;;;5031218;28;20461;-70
2023/05/23 10:59:20;;;;;;;3.43;3.13;;;19.40;99.90;;;;;;5030999;28;20544;-70
2023/05/23 11:01:46;;;;;;;4.10;3.70;;;19.60;99.90;;;;;;5038976;28;20468;-70
2023/05/23 11:04:13;;;;;;;3.50;3.20;;;19.70;99.90;;;;;;5031175;28;20432;-70
2023/05/23 11:06:43;;;;;;;4.33;3.00;;;19.70;99.90;;;;;;5031197;28;20424;-71
2023/05/23 11:09:13;;;;;;;4.30;2.47;;;19.80;99.90;;;;;;5030683;28;20533;-70
2023/05/23 11:11:52;;;;;;;2.70;2.50;;;20.10;99.90;;;;;;5030966;28;20481;-70
2023/05/23 11:14:20;;;;;;;2.40;2.20;;;20.30;99.90;;;;;;5039012;28;20983;-70
2023/05/23 11:16:47;;;;;;;2.27;2.07;;;20.50;99.90;;;;;;5031243;28;20428;-70
2023/05/23 11:19:26;;;;;;;3.03;2.70;;;20.70;99.90;;;;;;5030945;28;20418;-70
2023/05/23 11:21:55;;;;;;;2.70;2.07;;;21.10;99.90;;;;;;5030672;28;20476;-70
2023/05/23 11:24:23;;;;;;;3.10;2.27;;;21.30;99.90;;;;;;5030582;28;20966;-70
2023/05/23 11:26:58;;;;;;;2.50;2.30;;;21.30;99.90;;;;;;5030623;28;20454;-70
2023/05/23 11:29:26;;;;;;;2.47;2.17;;;21.20;99.90;;;;;;5035999;28;20487;-71
2023/05/23 11:31:52;;;;;;;2.43;2.23;;;21.00;99.90;;;;;;5039320;28;20468;-69
2023/05/23 11:34:20;;;;;;;2.83;2.30;;;21.00;99.90;;;;;;5031127;28;20527;-70
2023/05/23 11:36:47;;;;;;;2.60;2.40;;;20.70;99.90;;;;;;5030358;28;20457;-70
2023/05/23 11:39:14;;;;;;;2.80;2.00;;;20.50;99.90;;;;;;5035885;28;20498;-70
2023/05/23 11:41:43;;;;;;;2.23;2.00;;;20.30;99.90;;;;;;5033139;28;20480;-70
2023/05/23 11:44:13;;;;;;;4.13;2.67;;;20.10;99.90;;;;;;5030637;28;20449;-70
2023/05/23 11:46:40;;;;;;;2.30;2.10;;;20.00;99.90;;;;;;5030527;28;20458;-70
2023/05/23 11:49:11;;;;;;;2.70;2.50;;;19.90;99.90;;;;;;5035472;28;20492;-70
2023/05/23 11:51:38;;;;;;;2.20;2.10;;;19.70;99.90;;;;;;5030465;28;20701;-71
2023/05/23 11:54:05;;;;;;;2.40;2.20;;;19.70;99.90;;;;;;5030850;28;20457;-70
2023/05/23 11:56:38;;;;;;;5.13;2.23;;;19.60;99.90;;;;;;5030715;28;20482;-70
2023/05/23 11:59:06;;;;;;;1.93;1.83;;;19.50;99.90;;;;;;5038508;28;20420;-70
2023/05/23 12:01:33;;;;;;;2.50;1.90;;;19.50;99.90;;;;;;5030560;28;20853;-70
2023/05/23 12:04:00;;;;;;;2.53;2.33;;;19.50;99.90;;;;;;5030076;28;20443;-71
2023/05/23 12:06:26;;;;;;;2.33;2.10;;;19.50;99.90;;;;;;5030611;28;20514;-71
2023/05/23 12:08:53;;;;;;;2.87;2.67;;;19.50;99.90;;;;;;5030064;28;20449;-70
2023/05/23 12:11:21;;;;;;;2.93;2.13;;;19.60;99.90;;;;;;5030133;28;20471;-71
2023/05/23 12:13:47;;;;;;;7.67;2.87;;;19.70;99.90;;;;;;5036429;28;20438;-71
2023/05/23 12:16:15;;;;;;;4.17;2.30;;;19.80;99.90;;;;;;5029949;28;20424;-71
2023/05/23 12:18:42;;;;;;;2.97;2.77;;;19.80;99.90;;;;;;5029642;28;20428;-70
2023/05/23 12:21:09;;;;;;;2.87;2.67;;;19.80;99.90;;;;;;5030224;28;20515;-71
2023/05/23 12:23:36;;;;;;;2.90;2.70;;;19.60;99.90;;;;;;5038417;28;20490;-71
2023/05/23 12:26:05;;;;;;;3.17;2.97;;;19.40;99.90;;;;;;5030206;28;20441;-70
2023/05/23 12:28:37;;;;;;;3.60;3.03;;;19.30;99.90;;;;;;5029917;28;20424;-70
2023/05/23 12:31:11;;;;;;;3.97;3.47;;;19.10;99.90;;;;;;5036525;28;21027;-71
2023/05/23 12:33:42;;;;;;;4.23;3.73;;;18.90;99.90;;;;;;5030106;28;20524;-71
2023/05/23 12:36:09;;;;;;;4.93;3.83;;;18.70;99.90;;;;;;5030007;28;20489;-71
2023/05/23 12:38:39;;;;;;;8.13;4.03;;;18.70;99.90;;;;;;5029795;28;20924;-70
2023/05/23 12:41:10;;;;;;;4.70;4.20;;;18.70;99.90;;;;;;5029769;28;20465;-70
2023/05/23 12:43:38;;;;;;;4.70;4.07;;;18.60;99.90;;;;;;5037900;28;20458;-70